createdAt,value
2022-08-10T00:00:06.000Z,87
2022-08-10T00:01:23.000Z,87
2022-08-10T00:02:40.000Z,86.7
2022-08-10T00:04:10.000Z,87.3
2022-08-10T00:05:41.000Z,87.5
2022-08-10T00:07:11.000Z,87.3
2022-08-10T00:08:42.000Z,87.5
2022-08-10T00:10:12.000Z,87.3
2022-08-10T00:11:43.000Z,87.1
2022-08-10T00:13:13.000Z,87.2
2022-08-10T00:14:44.000Z,87.1
2022-08-10T00:16:14.000Z,87.3
2022-08-10T00:18:48.000Z,87.2
2022-08-10T00:20:19.000Z,87.3
2022-08-10T00:21:49.000Z,87.3
2022-08-10T00:23:20.000Z,87.4
2022-08-10T00:24:50.000Z,87.5
2022-08-10T00:26:21.000Z,87.6
2022-08-10T00:27:51.000Z,87.7
2022-08-10T00:29:22.000Z,88.3
2022-08-10T00:30:52.000Z,88.2
2022-08-10T00:32:23.000Z,88.2
2022-08-10T00:33:40.000Z,88.1
2022-08-10T00:34:57.000Z,88.2
2022-08-10T00:36:27.000Z,88.4
2022-08-10T00:37:58.000Z,88.3
2022-08-10T00:39:28.000Z,88.4
2022-08-10T00:40:59.000Z,88.8
2022-08-10T00:42:29.000Z,88.8
2022-08-10T00:44:00.000Z,88.7
2022-08-10T00:45:30.000Z,88.8
2022-08-10T00:47:01.000Z,88.9
2022-08-10T00:48:31.000Z,89
2022-08-10T00:49:48.000Z,88.9
2022-08-10T00:51:05.000Z,88.9
2022-08-10T00:52:36.000Z,89.1
2022-08-10T00:54:06.000Z,89.1
2022-08-10T00:55:37.000Z,89.1
2022-08-10T00:57:07.000Z,89
2022-08-10T00:58:38.000Z,89.2
2022-08-10T01:00:08.000Z,89.4
2022-08-10T01:01:39.000Z,89.3
2022-08-10T01:03:09.000Z,89.4
2022-08-10T01:04:40.000Z,89.9
2022-08-10T01:05:57.000Z,90
2022-08-10T01:07:13.000Z,90
2022-08-10T01:08:44.000Z,90.1
2022-08-10T01:10:14.000Z,90.1
2022-08-10T01:11:45.000Z,90.2
2022-08-10T01:13:15.000Z,90.3
2022-08-10T01:14:46.000Z,90.3
2022-08-10T01:16:16.000Z,90.4
2022-08-10T01:17:47.000Z,90.2
2022-08-10T01:19:17.000Z,90.5
2022-08-10T01:20:48.000Z,90.9
2022-08-10T01:22:05.000Z,91.7
2022-08-10T01:23:22.000Z,91.9
2022-08-10T01:24:52.000Z,91.9
2022-08-10T01:26:23.000Z,91.8
2022-08-10T01:27:53.000Z,91.9
2022-08-10T01:29:24.000Z,91.6
2022-08-10T01:30:54.000Z,91.7
2022-08-10T01:32:25.000Z,91.7
2022-08-10T01:33:55.000Z,91.7
2022-08-10T01:35:26.000Z,91.7
2022-08-10T01:36:57.000Z,91.8
2022-08-10T01:38:13.000Z,91.8
2022-08-10T01:39:30.000Z,91.9
2022-08-10T01:41:01.000Z,92.1
2022-08-10T01:42:31.000Z,92.8
2022-08-10T01:44:02.000Z,93
2022-08-10T01:45:32.000Z,93.2
2022-08-10T01:47:03.000Z,93.1
2022-08-10T01:48:34.000Z,93.3
2022-08-10T01:50:04.000Z,93.2
2022-08-10T01:51:35.000Z,93.2
2022-08-10T01:53:05.000Z,93.3
2022-08-10T01:54:22.000Z,93.5
2022-08-10T01:55:39.000Z,93.5
2022-08-10T01:57:10.000Z,93.5
2022-08-10T01:58:40.000Z,93.7
2022-08-10T02:00:11.000Z,93.7
2022-08-10T02:01:41.000Z,93.5
2022-08-10T02:03:12.000Z,93.5
2022-08-10T02:04:42.000Z,93.4
2022-08-10T02:06:13.000Z,93.6
2022-08-10T02:07:43.000Z,93.6
2022-08-10T02:09:14.000Z,93.8
2022-08-10T02:10:31.000Z,93.9
2022-08-10T02:11:47.000Z,94
2022-08-10T02:13:18.000Z,94.1
2022-08-10T02:14:48.000Z,94.4
2022-08-10T02:16:19.000Z,94.6
2022-08-10T02:17:49.000Z,94.9
2022-08-10T02:19:20.000Z,95.1
2022-08-10T02:20:50.000Z,95
2022-08-10T02:22:21.000Z,94.6
2022-08-10T02:23:51.000Z,94.4
2022-08-10T02:25:22.000Z,94.6
2022-08-10T02:26:39.000Z,94.8
2022-08-10T02:27:56.000Z,94.8
2022-08-10T02:29:26.000Z,94.8
2022-08-10T02:30:57.000Z,95
2022-08-10T02:32:27.000Z,95
2022-08-10T02:33:58.000Z,95.3
2022-08-10T02:35:28.000Z,95.3
2022-08-10T02:36:59.000Z,95.3
2022-08-10T02:38:29.000Z,95.6
2022-08-10T02:40:00.000Z,95.6
2022-08-10T02:41:30.000Z,95.7
2022-08-10T02:42:47.000Z,95.7
2022-08-10T02:44:04.000Z,95.5
2022-08-10T02:45:35.000Z,95.4
2022-08-10T02:47:05.000Z,95.2
2022-08-10T02:48:36.000Z,95
2022-08-10T02:50:06.000Z,95.1
2022-08-10T02:51:37.000Z,95.1
2022-08-10T02:53:07.000Z,95.1
2022-08-10T02:54:38.000Z,95.1
2022-08-10T02:56:08.000Z,95.2
2022-08-10T02:57:39.000Z,95.4
2022-08-10T02:58:56.000Z,95.4
2022-08-10T03:00:13.000Z,95.5
2022-08-10T03:01:43.000Z,95.5
2022-08-10T03:03:14.000Z,95.5
2022-08-10T03:04:44.000Z,95.8
2022-08-10T03:08:44.000Z,95.8
2022-08-10T03:11:28.000Z,96.4
2022-08-10T03:14:02.000Z,96.5
2022-08-10T03:15:19.000Z,96.5
2022-08-10T03:18:04.000Z,96.5
2022-08-10T03:20:49.000Z,96.5
2022-08-10T03:23:33.000Z,96.5
2022-08-10T03:26:18.000Z,96.8
2022-08-10T03:29:03.000Z,96.6
2022-08-10T03:31:47.000Z,96.6
2022-08-10T03:34:32.000Z,96.9
2022-08-10T03:40:01.000Z,96.4
2022-08-10T03:41:28.000Z,96.5
2022-08-10T03:42:46.000Z,96.5
2022-08-10T03:45:30.000Z,96.5
2022-08-10T03:48:15.000Z,96.2
2022-08-10T03:51:00.000Z,96.2
2022-08-10T03:53:45.000Z,96.4
2022-08-10T03:56:45.000Z,96.4
2022-08-10T03:59:30.000Z,96.1
2022-08-10T04:02:15.000Z,96.1
2022-08-10T04:04:59.000Z,96.5
2022-08-10T04:07:44.000Z,97.2
2022-08-10T04:09:02.000Z,97.2
2022-08-10T04:10:29.000Z,96.8
2022-08-10T04:13:13.000Z,96.6
2022-08-10T04:15:58.000Z,96.3
2022-08-10T04:18:43.000Z,96.3
2022-08-10T04:21:27.000Z,96.7
2022-08-10T04:24:12.000Z,97.2
2022-08-10T04:26:56.000Z,97.2
2022-08-10T04:29:41.000Z,96.5
2022-08-10T04:32:26.000Z,96.5
2022-08-10T04:35:10.000Z,96.5
2022-08-10T04:36:28.000Z,96.5
2022-08-10T04:37:55.000Z,96.7
2022-08-10T04:40:40.000Z,96.8
2022-08-10T04:43:24.000Z,96.9
2022-08-10T04:46:09.000Z,97
2022-08-10T04:48:54.000Z,97.3
2022-08-10T04:51:38.000Z,97.3
2022-08-10T04:54:23.000Z,97.1
2022-08-10T04:57:07.000Z,97
2022-08-10T04:59:52.000Z,97
2022-08-10T05:02:37.000Z,96.8
2022-08-10T05:03:54.000Z,96.8
2022-08-10T05:05:21.000Z,96.6
2022-08-10T05:08:06.000Z,96.8
2022-08-10T05:10:51.000Z,96.8
2022-08-10T05:13:35.000Z,96.9
2022-08-10T05:16:20.000Z,96.7
2022-08-10T05:19:05.000Z,96.6
2022-08-10T05:21:49.000Z,96.7
2022-08-10T05:24:34.000Z,96.7
2022-08-10T05:27:19.000Z,96.7
2022-08-10T05:30:03.000Z,96.4
2022-08-10T05:31:21.000Z,96.4
2022-08-10T05:32:48.000Z,96.5
2022-08-10T05:35:32.000Z,96.5
2022-08-10T05:38:17.000Z,96.4
2022-08-10T05:41:02.000Z,96.4
2022-08-10T05:43:46.000Z,96
2022-08-10T05:46:31.000Z,97.5
2022-08-10T05:49:16.000Z,97.6
2022-08-10T05:52:00.000Z,97.8
2022-08-10T05:54:45.000Z,96.5
2022-08-10T05:57:30.000Z,95.9
2022-08-10T05:58:47.000Z,95.1
2022-08-10T06:00:14.000Z,95.8
2022-08-10T06:02:59.000Z,94.4
2022-08-10T06:05:43.000Z,94.3
2022-08-10T06:08:28.000Z,93.3
2022-08-10T06:11:13.000Z,93.3
2022-08-10T06:13:57.000Z,92.8
2022-08-10T06:16:42.000Z,93
2022-08-10T06:19:27.000Z,91.5
2022-08-10T06:22:11.000Z,91.4
2022-08-10T06:24:56.000Z,92.2
2022-08-10T06:26:14.000Z,90.8
2022-08-10T06:27:41.000Z,90.4
2022-08-10T06:30:25.000Z,89.8
2022-08-10T06:33:10.000Z,89.2
2022-08-10T06:35:55.000Z,88.4
2022-08-10T06:38:39.000Z,87.7
2022-08-10T06:41:24.000Z,87
2022-08-10T06:44:08.000Z,85.8
2022-08-10T06:46:53.000Z,85.3
2022-08-10T06:49:38.000Z,84.9
2022-08-10T06:52:22.000Z,83.4
2022-08-10T06:53:40.000Z,83.3
2022-08-10T06:55:07.000Z,82.9
2022-08-10T06:57:52.000Z,83.6
2022-08-10T07:00:36.000Z,83
2022-08-10T07:03:21.000Z,82.2
2022-08-10T07:06:06.000Z,83.6
2022-08-10T07:08:50.000Z,82.3
2022-08-10T07:11:35.000Z,80.3
2022-08-10T07:14:19.000Z,78.9
2022-08-10T07:17:04.000Z,80.8
2022-08-10T07:19:49.000Z,75.3
2022-08-10T07:22:33.000Z,73.4
2022-08-10T07:25:18.000Z,73
2022-08-10T07:28:03.000Z,73.6
2022-08-10T07:30:47.000Z,73.2
2022-08-10T07:33:32.000Z,73.2
2022-08-10T07:36:17.000Z,70.1
2022-08-10T07:39:01.000Z,71.7
2022-08-10T07:41:46.000Z,72.8
2022-08-10T07:44:31.000Z,68.2
2022-08-10T07:47:15.000Z,67
2022-08-10T07:48:33.000Z,64.8
2022-08-10T07:50:00.000Z,64.5
2022-08-10T07:52:44.000Z,65.4
2022-08-10T07:55:29.000Z,62.6
2022-08-10T07:58:14.000Z,61.7
2022-08-10T08:00:58.000Z,62.9
2022-08-10T08:03:43.000Z,62.3
2022-08-10T08:06:28.000Z,61
2022-08-10T08:09:12.000Z,60.8
2022-08-10T08:11:57.000Z,58
2022-08-10T08:14:42.000Z,59.2
2022-08-10T08:15:59.000Z,59
2022-08-10T08:17:26.000Z,57
2022-08-10T08:20:11.000Z,57.9
2022-08-10T08:22:56.000Z,56.1
2022-08-10T08:25:40.000Z,58.5
2022-08-10T08:28:25.000Z,55.1
2022-08-10T08:31:09.000Z,53.8
2022-08-10T08:33:54.000Z,50.8
2022-08-10T08:36:39.000Z,50
2022-08-10T08:39:23.000Z,47
2022-08-10T08:42:08.000Z,46.9
2022-08-10T08:43:26.000Z,46.8
2022-08-10T08:47:37.000Z,45
2022-08-10T08:50:22.000Z,44
2022-08-10T08:53:07.000Z,44.4
2022-08-10T08:55:51.000Z,42.2
2022-08-10T08:58:36.000Z,42
2022-08-10T09:01:20.000Z,40.4
2022-08-10T09:04:05.000Z,40.4
2022-08-10T09:06:50.000Z,40.6
2022-08-10T09:09:34.000Z,39.3
2022-08-10T09:10:52.000Z,38.6
2022-08-10T09:12:19.000Z,39.1
2022-08-10T09:15:04.000Z,36.5
2022-08-10T09:17:48.000Z,38.1
2022-08-10T09:20:33.000Z,35.6
2022-08-10T09:23:18.000Z,37
2022-08-10T09:26:02.000Z,34.6
2022-08-10T09:28:47.000Z,34.6
2022-08-10T09:31:32.000Z,34.6
2022-08-10T09:34:16.000Z,33.6
2022-08-10T09:39:46.000Z,34.8
2022-08-10T09:42:30.000Z,34.8
2022-08-10T09:45:15.000Z,33.7
2022-08-10T09:50:44.000Z,31.8
2022-08-10T09:53:29.000Z,34.1
2022-08-10T09:56:13.000Z,33.3
2022-08-10T09:58:58.000Z,33.6
2022-08-10T10:01:43.000Z,31.8
2022-08-10T10:04:27.000Z,32.5
2022-08-10T10:05:45.000Z,33.1
2022-08-10T10:07:28.000Z,33.5
2022-08-10T10:10:13.000Z,35.3
2022-08-10T10:12:58.000Z,32.1
2022-08-10T10:15:42.000Z,31
2022-08-10T10:18:27.000Z,32.2
2022-08-10T10:21:12.000Z,32.4
2022-08-10T10:23:56.000Z,31.3
2022-08-10T10:26:41.000Z,31.7
2022-08-10T10:29:25.000Z,32.6
2022-08-10T10:32:10.000Z,35.3
2022-08-10T10:33:28.000Z,35.3
2022-08-10T10:35:11.000Z,34.1
2022-08-10T10:37:56.000Z,32.6
2022-08-10T10:40:40.000Z,35.1
2022-08-10T10:43:25.000Z,35.4
2022-08-10T10:46:10.000Z,36.3
2022-08-10T10:48:54.000Z,37.8
2022-08-10T10:51:39.000Z,38
2022-08-10T10:57:08.000Z,37
2022-08-10T10:59:53.000Z,38.8
2022-08-10T11:01:11.000Z,38.3
2022-08-10T11:02:38.000Z,36.3
2022-08-10T11:05:22.000Z,37.8
2022-08-10T11:08:07.000Z,37.2
2022-08-10T11:10:51.000Z,37.6
2022-08-10T11:13:36.000Z,40
2022-08-10T11:16:21.000Z,37.6
2022-08-10T11:19:05.000Z,37.8
2022-08-10T11:21:50.000Z,36.6
2022-08-10T11:24:35.000Z,39.9
2022-08-10T11:27:19.000Z,40.4
2022-08-10T11:28:37.000Z,39
2022-08-10T11:30:04.000Z,38.7
2022-08-10T11:32:49.000Z,39.6
2022-08-10T11:35:33.000Z,40.1
2022-08-10T11:38:18.000Z,38.5
2022-08-10T11:41:03.000Z,37.9
2022-08-10T11:43:47.000Z,38.8
2022-08-10T11:46:32.000Z,38.2
2022-08-10T11:49:16.000Z,39.1
2022-08-10T11:52:01.000Z,37.2
2022-08-10T11:54:46.000Z,39.8
2022-08-10T11:56:04.000Z,37.4
2022-08-10T11:57:30.000Z,37.6
2022-08-10T12:00:15.000Z,39.4
2022-08-10T12:03:00.000Z,39.5
2022-08-10T12:05:44.000Z,38.5
2022-08-10T12:08:29.000Z,39.7
2022-08-10T12:11:14.000Z,37.1
2022-08-10T12:16:43.000Z,38.6
2022-08-10T12:19:28.000Z,38.4
2022-08-10T12:22:29.000Z,40.2
2022-08-10T12:23:46.000Z,39.1
2022-08-10T12:25:13.000Z,38.5
2022-08-10T12:27:58.000Z,39.2
2022-08-10T12:30:43.000Z,37.5
2022-08-10T12:33:43.000Z,38.6
2022-08-10T12:36:28.000Z,38.1
2022-08-10T12:39:13.000Z,36.7
2022-08-10T12:41:57.000Z,38
2022-08-10T12:44:42.000Z,38.5
2022-08-10T12:47:27.000Z,38
2022-08-10T12:50:11.000Z,39.1
2022-08-10T12:51:29.000Z,37.3
2022-08-10T12:52:56.000Z,37.6
2022-08-10T12:55:41.000Z,38.8
2022-08-10T12:58:25.000Z,37.3
2022-08-10T13:01:10.000Z,35.8
2022-08-10T13:03:55.000Z,36.8
2022-08-10T13:06:39.000Z,36.1
2022-08-10T13:09:24.000Z,37
2022-08-10T13:12:08.000Z,37.4
2022-08-10T13:14:53.000Z,37.3
2022-08-10T13:17:38.000Z,37.3
2022-08-10T13:18:55.000Z,38.2
2022-08-10T13:20:22.000Z,39.6
2022-08-10T13:23:07.000Z,37.5
2022-08-10T13:25:52.000Z,37.9
2022-08-10T13:28:36.000Z,39.4
2022-08-10T13:31:21.000Z,37.4
2022-08-10T13:34:06.000Z,37.9
2022-08-10T13:36:50.000Z,35.6
2022-08-10T13:39:35.000Z,37.8
2022-08-10T13:42:20.000Z,36.6
2022-08-10T13:45:04.000Z,37.3
2022-08-10T13:46:22.000Z,37.3
2022-08-10T13:47:49.000Z,37.6
2022-08-10T13:50:33.000Z,39.3
2022-08-10T13:53:18.000Z,36.9
2022-08-10T13:56:03.000Z,38.1
2022-08-10T13:58:47.000Z,37.1
2022-08-10T14:01:32.000Z,37.1
2022-08-10T14:04:17.000Z,38.8
2022-08-10T14:07:01.000Z,38.6
2022-08-10T14:09:46.000Z,35.8
2022-08-10T14:12:31.000Z,37.5
2022-08-10T14:13:48.000Z,37.7
2022-08-10T14:15:15.000Z,36.7
2022-08-10T14:18:00.000Z,37.5
2022-08-10T14:21:01.000Z,37
2022-08-10T14:23:46.000Z,37.7
2022-08-10T14:26:30.000Z,36.9
2022-08-10T14:29:15.000Z,37.6
2022-08-10T14:31:59.000Z,37.7
2022-08-10T14:34:44.000Z,37.7
2022-08-10T14:37:29.000Z,37.9
2022-08-10T14:40:13.000Z,37.3
2022-08-10T14:41:31.000Z,40.2
2022-08-10T14:42:58.000Z,38.7
2022-08-10T14:45:43.000Z,38.4
2022-08-10T14:48:27.000Z,39.7
2022-08-10T14:51:12.000Z,39.2
2022-08-10T14:54:13.000Z,38.4
2022-08-10T14:56:58.000Z,38.9
2022-08-10T14:59:42.000Z,39.3
2022-08-10T15:02:27.000Z,40.3
2022-08-10T15:05:12.000Z,39.5
2022-08-10T15:07:56.000Z,39.4
2022-08-10T15:09:14.000Z,38.8
2022-08-10T15:10:41.000Z,38.6
2022-08-10T15:13:25.000Z,38.7
2022-08-10T15:16:10.000Z,37.7
2022-08-10T15:18:55.000Z,39.4
2022-08-10T15:21:39.000Z,39.3
2022-08-10T15:24:24.000Z,38.7
2022-08-10T15:27:09.000Z,41.4
2022-08-10T15:32:38.000Z,39.6
2022-08-10T15:35:23.000Z,39.4
2022-08-10T15:36:40.000Z,40.1
2022-08-10T15:38:07.000Z,39.3
2022-08-10T15:40:52.000Z,38.8
2022-08-10T15:43:36.000Z,39.7
2022-08-10T15:46:21.000Z,40.4
2022-08-10T15:49:06.000Z,41
2022-08-10T15:51:50.000Z,41
2022-08-10T15:54:35.000Z,39.8
2022-08-10T15:57:20.000Z,39.5
2022-08-10T16:00:04.000Z,40.7
2022-08-10T16:02:49.000Z,40.4
2022-08-10T16:04:07.000Z,39.2
2022-08-10T16:05:34.000Z,40.5
2022-08-10T16:11:03.000Z,41
2022-08-10T16:13:48.000Z,41.9
2022-08-10T16:16:32.000Z,40.4
2022-08-10T16:19:17.000Z,40.1
2022-08-10T16:22:01.000Z,42.3
2022-08-10T16:24:46.000Z,41.4
2022-08-10T16:27:31.000Z,42.8
2022-08-10T16:30:15.000Z,41.9
2022-08-10T16:31:33.000Z,41.4
2022-08-10T16:33:00.000Z,41.5
2022-08-10T16:35:45.000Z,42.5
2022-08-10T16:38:29.000Z,42.9
2022-08-10T16:41:14.000Z,42.8
2022-08-10T16:43:59.000Z,42.4
2022-08-10T16:46:43.000Z,43.5
2022-08-10T16:49:28.000Z,44.4
2022-08-10T16:52:13.000Z,41.9
2022-08-10T16:54:57.000Z,41.8
2022-08-10T16:57:42.000Z,42.5
2022-08-10T16:59:00.000Z,41.2
2022-08-10T17:00:26.000Z,40.4
2022-08-10T17:03:11.000Z,40.1
2022-08-10T17:05:56.000Z,40.6
2022-08-10T17:08:40.000Z,41.6
2022-08-10T17:11:25.000Z,41.6
2022-08-10T17:14:10.000Z,42.5
2022-08-10T17:16:54.000Z,43
2022-08-10T17:19:39.000Z,42.2
2022-08-10T17:22:24.000Z,42.5
2022-08-10T17:25:08.000Z,42.5
2022-08-10T17:26:26.000Z,41.8
2022-08-10T17:27:53.000Z,42.1
2022-08-10T17:30:37.000Z,42.3
2022-08-10T17:33:22.000Z,41.5
2022-08-10T17:36:07.000Z,41.2
2022-08-10T17:38:51.000Z,41.3
2022-08-10T17:41:36.000Z,41.3
2022-08-10T17:44:21.000Z,42
2022-08-10T17:47:05.000Z,42.8
2022-08-10T17:49:50.000Z,43.4
2022-08-10T17:52:35.000Z,42.9
2022-08-10T17:53:52.000Z,42.8
2022-08-10T17:55:19.000Z,43.8
2022-08-10T17:58:04.000Z,43
2022-08-10T18:00:49.000Z,43.6
2022-08-10T18:03:33.000Z,43.4
2022-08-10T18:06:18.000Z,43.2
2022-08-10T18:09:02.000Z,44.5
2022-08-10T18:11:47.000Z,44.2
2022-08-10T18:14:32.000Z,45
2022-08-10T18:17:16.000Z,45.2
2022-08-10T18:20:01.000Z,44.6
2022-08-10T18:21:19.000Z,45.1
2022-08-10T18:22:46.000Z,45
2022-08-10T18:25:30.000Z,45.7
2022-08-10T18:28:15.000Z,46.1
2022-08-10T18:31:00.000Z,46
2022-08-10T18:33:44.000Z,46.9
2022-08-10T18:36:29.000Z,47.9
2022-08-10T18:39:14.000Z,47.6
2022-08-10T18:41:58.000Z,47.5
2022-08-10T18:44:43.000Z,48.9
2022-08-10T18:47:27.000Z,49.7
2022-08-10T18:48:45.000Z,51.3
2022-08-10T18:50:12.000Z,51.3
2022-08-10T18:52:57.000Z,51.3
2022-08-10T18:55:41.000Z,52.4
2022-08-10T18:58:26.000Z,53.5
2022-08-10T19:01:11.000Z,54.5
2022-08-10T19:03:55.000Z,53.1
2022-08-10T19:06:40.000Z,53.4
2022-08-10T19:09:25.000Z,54.5
2022-08-10T19:12:09.000Z,57.8
2022-08-10T19:14:54.000Z,56.4
2022-08-10T19:16:12.000Z,58.1
2022-08-10T19:17:38.000Z,57.7
2022-08-10T19:20:23.000Z,57
2022-08-10T19:23:08.000Z,58.2
2022-08-10T19:25:52.000Z,60.5
2022-08-10T19:28:37.534Z,58.3
2022-08-10T19:31:22.000Z,57.6
2022-08-10T19:34:06.000Z,60
2022-08-10T19:36:51.000Z,59.9
2022-08-10T19:39:36.000Z,60.2
2022-08-10T19:42:20.000Z,59.9
2022-08-10T19:43:38.000Z,59
2022-08-10T19:45:05.000Z,59.7
2022-08-10T19:47:50.000Z,62
2022-08-10T19:50:34.000Z,63.7
2022-08-10T19:53:19.000Z,63.2
2022-08-10T19:56:03.000Z,60.2
2022-08-10T19:58:48.000Z,60.4
2022-08-10T20:01:33.000Z,60.5
2022-08-10T20:04:17.000Z,61.9
2022-08-10T20:07:02.000Z,62.8
2022-08-10T20:09:47.000Z,63.4
2022-08-10T20:11:05.000Z,63.5
2022-08-10T20:12:31.000Z,63
2022-08-10T20:15:16.000Z,63.7
2022-08-10T20:18:01.000Z,64.7
2022-08-10T20:20:45.000Z,64.8
2022-08-10T20:23:30.000Z,65.8
2022-08-10T20:26:14.000Z,65.9
2022-08-10T20:28:59.000Z,68.8
2022-08-10T20:31:44.000Z,65.7
2022-08-10T20:34:28.000Z,65.8
2022-08-10T20:37:13.000Z,65.8
2022-08-10T20:38:31.000Z,66.6
2022-08-10T20:39:58.000Z,66.7
2022-08-10T20:42:43.000Z,66.7
2022-08-10T20:45:43.000Z,69.5
2022-08-10T20:48:28.000Z,68.7
2022-08-10T20:51:13.000Z,68.6
2022-08-10T20:53:57.000Z,72.9
2022-08-10T20:56:42.000Z,68.9
2022-08-10T20:59:27.000Z,71.8
2022-08-10T21:02:11.000Z,73
2022-08-10T21:04:56.000Z,71.6
2022-08-10T21:06:14.000Z,72.4
2022-08-10T21:07:40.000Z,74.4
2022-08-10T21:13:10.000Z,73.8
2022-08-10T21:15:54.000Z,74.9
2022-08-10T21:18:39.000Z,72.8
2022-08-10T21:21:24.000Z,73.4
2022-08-10T21:24:08.000Z,72.5
2022-08-10T21:26:53.000Z,72
2022-08-10T21:29:38.000Z,71.6
2022-08-10T21:32:22.000Z,71.2
2022-08-10T21:33:40.000Z,71.5
2022-08-10T21:35:07.000Z,71.8
2022-08-10T21:37:52.000Z,72.4
2022-08-10T21:40:36.000Z,72.9
2022-08-10T21:43:21.000Z,72.5
2022-08-10T21:46:05.000Z,71.9
2022-08-10T21:48:50.000Z,72.6
2022-08-10T21:51:35.000Z,72.9
2022-08-10T21:54:19.000Z,75.1
2022-08-10T21:57:04.000Z,77.6
2022-08-10T22:01:06.000Z,77.3
2022-08-10T22:02:33.000Z,77.7
2022-08-10T22:05:18.000Z,76.8
2022-08-10T22:08:03.000Z,78
2022-08-10T22:10:47.000Z,78.1
2022-08-10T22:13:32.000Z,79.4
2022-08-10T22:16:16.000Z,78.1
2022-08-10T22:19:01.000Z,79.2
2022-08-10T22:21:46.000Z,77.2
2022-08-10T22:24:30.000Z,77.4
2022-08-10T22:27:15.000Z,78.6
2022-08-10T22:28:33.000Z,79.6
2022-08-10T22:30:00.000Z,79.8
2022-08-10T22:32:44.000Z,80.9
2022-08-10T22:35:29.000Z,81.2
2022-08-10T22:38:14.000Z,80.2
2022-08-10T22:40:58.000Z,79.4
2022-08-10T22:43:43.000Z,78
2022-08-10T22:46:28.000Z,77.8
2022-08-10T22:49:12.000Z,77.3
2022-08-10T22:51:57.000Z,77
2022-08-10T22:54:41.000Z,77.6
2022-08-10T22:55:59.000Z,77.9
2022-08-10T22:57:26.000Z,79.8
2022-08-10T23:00:11.000Z,80.8
2022-08-10T23:02:55.000Z,79.7
2022-08-10T23:05:40.000Z,78.6
2022-08-10T23:08:25.000Z,78.3
2022-08-10T23:11:09.000Z,78.2
2022-08-10T23:13:54.000Z,78.1
2022-08-10T23:16:39.000Z,79.3
2022-08-10T23:19:23.000Z,79
2022-08-10T23:22:08.000Z,79
2022-08-10T23:23:26.000Z,79.4
2022-08-10T23:24:53.000Z,79.2
2022-08-10T23:27:37.000Z,79.4
2022-08-10T23:30:22.000Z,79.7
2022-08-10T23:33:06.000Z,79.9
2022-08-10T23:35:51.000Z,80.3
2022-08-10T23:38:36.000Z,80.3
2022-08-10T23:41:20.000Z,81.5
2022-08-10T23:44:05.000Z,83.6
2022-08-10T23:46:50.000Z,83.1
2022-08-10T23:49:34.000Z,82.9
2022-08-10T23:50:52.000Z,81.2
2022-08-10T23:52:19.000Z,81.1
2022-08-10T23:55:04.000Z,81.6
2022-08-10T23:57:48.000Z,84
